Time;durP1;ratioP1;P1;durP2;ratioP2;P2;SDS_P1;SDS_P2;PMS_P1;PMS_P2;Temp;Humidity;BMP_temperature;BMP_pressure;BME280_temperature;BME280_humidity;BME280_pressure;Samples;Min_cycle;Max_cycle;Signal;HPM_P1;HPM_P2
2022/09/28 00:01:50;;;;;;;;;;;19.00;47.30;;;;;;8336404;28;19917;-46
2022/09/28 00:05:50;;;;;;;;;;;19.00;47.40;;;;;;8335796;28;19921;-46
2022/09/28 00:09:51;;;;;;;;;;;19.00;47.30;;;;;;8336083;28;19996;-45
2022/09/28 00:13:55;;;;;;;;;;;19.00;47.30;;;;;;8335811;28;19924;-45
2022/09/28 00:17:55;;;;;;;;;;;19.00;47.40;;;;;;8335115;28;20385;-45
2022/09/28 00:21:56;;;;;;;;;;;19.00;47.40;;;;;;8335536;28;19924;-46
2022/09/28 00:26:00;;;;;;;;;;;19.00;47.40;;;;;;8335652;28;19913;-45
2022/09/28 00:30:01;;;;;;;;;;;19.00;47.40;;;;;;8334859;28;20290;-44
2022/09/28 00:34:03;;;;;;;;;;;19.00;47.40;;;;;;8335229;28;20000;-45
2022/09/28 00:38:04;;;;;;;;;;;19.00;47.40;;;;;;8334765;28;19968;-44
2022/09/28 00:42:13;;;;;;;;;;;18.90;47.40;;;;;;8334515;28;20113;-44
2022/09/28 00:46:18;;;;;;;;;;;19.00;47.40;;;;;;8335066;28;20000;-45
2022/09/28 00:50:21;;;;;;;;;;;18.90;47.40;;;;;;8334957;28;19936;-44
2022/09/28 00:54:22;;;;;;;;;;;19.00;47.40;;;;;;8334050;28;19921;-45
2022/09/28 00:58:27;;;;;;;;;;;18.90;47.40;;;;;;8334462;28;19925;-45
2022/09/28 01:02:27;;;;;;;;;;;18.90;47.40;;;;;;8334131;28;20374;-44
2022/09/28 01:06:29;;;;;;;;;;;18.90;47.40;;;;;;8333837;28;19924;-46
2022/09/28 01:10:30;;;;;;;;;;;18.90;47.40;;;;;;8333524;28;19960;-45
2022/09/28 01:14:31;;;;;;;;;;;18.90;47.40;;;;;;8333625;28;19917;-45
2022/09/28 01:18:52;;;;;;;;;;;18.90;47.90;;;;;;8333841;28;19929;-45
2022/09/28 01:22:53;;;;;;;;;;;18.90;47.40;;;;;;8302951;28;19918;-44
2022/09/28 01:27:01;;;;;;;;;;;18.90;47.40;;;;;;8333102;28;19923;-46
2022/09/28 01:31:08;;;;;;;;;;;18.90;47.40;;;;;;8333972;28;19919;-45
2022/09/28 01:35:30;;;;;;;;;;;18.90;47.40;;;;;;8333141;28;19921;-45
2022/09/28 01:39:34;;;;;;;;;;;18.80;47.40;;;;;;8322595;28;19922;-45
2022/09/28 01:43:37;;;;;;;;;;;18.90;47.40;;;;;;8333231;28;19924;-44
2022/09/28 01:47:38;;;;;;;;;;;18.80;47.40;;;;;;8332427;28;20320;-44
2022/09/28 01:51:46;;;;;;;;;;;18.80;47.50;;;;;;8333063;28;19925;-46
2022/09/28 01:55:49;;;;;;;;;;;18.90;47.50;;;;;;8332736;28;20012;-45
2022/09/28 02:00:12;;;;;;;;;;;18.80;47.50;;;;;;8332064;28;19948;-45
2022/09/28 02:04:15;;;;;;;;;;;18.80;47.50;;;;;;8332524;28;20270;-45
2022/09/28 02:08:24;;;;;;;;;;;18.90;47.60;;;;;;8332280;28;19952;-45
2022/09/28 02:12:31;;;;;;;;;;;18.80;47.50;;;;;;8331651;28;19917;-45
2022/09/28 02:16:38;;;;;;;;;;;18.80;47.60;;;;;;8331924;28;19921;-45
2022/09/28 02:20:39;;;;;;;;;;;18.80;47.60;;;;;;8331390;28;19921;-45
2022/09/28 02:24:52;;;;;;;;;;;18.80;47.60;;;;;;8331802;28;19917;-45
2022/09/28 02:28:52;;;;;;;;;;;18.80;47.60;;;;;;8331619;28;20290;-45
2022/09/28 02:32:54;;;;;;;;;;;18.80;47.60;;;;;;8330966;28;19917;-45
2022/09/28 02:36:55;;;;;;;;;;;18.80;47.70;;;;;;8330872;28;19929;-45
2022/09/28 02:41:14;;;;;;;;;;;18.80;47.70;;;;;;8329882;28;19975;-45
2022/09/28 02:45:21;;;;;;;;;;;18.80;47.80;;;;;;8329354;28;19917;-45
2022/09/28 02:49:35;;;;;;;;;;;18.80;47.80;;;;;;8329810;28;19921;-45
2022/09/28 02:53:56;;;;;;;;;;;18.80;47.80;;;;;;8329339;28;20370;-45
2022/09/28 02:58:23;;;;;;;;;;;18.80;47.80;;;;;;8329382;28;20026;-44
2022/09/28 03:02:29;;;;;;;;;;;18.70;47.80;;;;;;8306106;28;20255;-45
2022/09/28 03:06:32;;;;;;;;;;;18.70;47.80;;;;;;8329678;28;19927;-44
2022/09/28 03:10:37;;;;;;;;;;;18.80;47.90;;;;;;8329257;28;20433;-44
2022/09/28 03:14:38;;;;;;;;;;;18.70;47.90;;;;;;8344311;28;19920;-45
2022/09/28 03:18:38;;;;;;;;;;;18.80;47.90;;;;;;8350163;28;19964;-45
2022/09/28 03:22:39;;;;;;;;;;;18.70;47.90;;;;;;8329155;28;20050;-45
2022/09/28 03:26:40;;;;;;;;;;;18.70;47.90;;;;;;8327642;28;19957;-45
2022/09/28 03:30:41;;;;;;;;;;;18.70;47.90;;;;;;8329134;28;19917;-46
2022/09/28 03:34:42;;;;;;;;;;;18.80;47.90;;;;;;8328733;28;20004;-45
2022/09/28 03:38:42;;;;;;;;;;;18.70;47.90;;;;;;8268023;28;1746541;-44
2022/09/28 03:42:43;;;;;;;;;;;18.80;48.00;;;;;;8330381;28;19925;-44
2022/09/28 03:46:43;;;;;;;;;;;18.70;48.00;;;;;;8330265;28;19920;-45
2022/09/28 03:50:43;;;;;;;;;;;18.70;48.00;;;;;;8329378;28;19952;-44
2022/09/28 03:54:44;;;;;;;;;;;18.70;48.00;;;;;;8329760;28;19971;-45
2022/09/28 03:58:44;;;;;;;;;;;18.70;48.00;;;;;;8329650;28;20371;-44
2022/09/28 04:02:45;;;;;;;;;;;18.80;48.10;;;;;;8329237;28;19913;-45
2022/09/28 04:06:45;;;;;;;;;;;18.70;48.00;;;;;;8329143;28;19921;-44
2022/09/28 04:10:46;;;;;;;;;;;18.80;48.60;;;;;;8329603;28;19956;-45
2022/09/28 04:14:46;;;;;;;;;;;18.80;48.10;;;;;;8329198;28;20385;-44
2022/09/28 04:18:47;;;;;;;;;;;18.70;48.10;;;;;;8329284;28;20019;-45
2022/09/28 04:22:47;;;;;;;;;;;18.80;48.10;;;;;;8329585;28;19917;-45
2022/09/28 04:26:48;;;;;;;;;;;18.70;48.10;;;;;;8329301;28;19928;-45
2022/09/28 04:30:48;;;;;;;;;;;18.70;48.00;;;;;;8329576;28;19921;-44
2022/09/28 04:34:50;;;;;;;;;;;18.80;48.10;;;;;;8329255;28;20000;-46
2022/09/28 04:38:53;;;;;;;;;;;18.70;48.10;;;;;;8332852;28;19925;-44
2022/09/28 04:42:54;;;;;;;;;;;18.70;48.10;;;;;;8334933;28;19921;-44
2022/09/28 04:46:55;;;;;;;;;;;18.70;48.10;;;;;;8335301;28;19921;-44
2022/09/28 04:50:56;;;;;;;;;;;18.70;48.10;;;;;;8334213;28;19917;-44
2022/09/28 04:54:56;;;;;;;;;;;18.70;48.10;;;;;;8334626;28;20368;-45
2022/09/28 04:58:57;;;;;;;;;;;18.70;48.20;;;;;;8334525;28;19931;-45
2022/09/28 05:02:57;;;;;;;;;;;18.70;48.20;;;;;;8333938;28;20012;-46
2022/09/28 05:06:58;;;;;;;;;;;18.70;48.20;;;;;;8334454;28;20325;-45
2022/09/28 05:10:59;;;;;;;;;;;18.70;48.20;;;;;;8334105;28;19944;-44
2022/09/28 05:15:00;;;;;;;;;;;18.70;48.20;;;;;;8333534;28;19917;-44
2022/09/28 05:19:00;;;;;;;;;;;18.80;48.80;;;;;;8333813;28;19929;-44
2022/09/28 05:23:01;;;;;;;;;;;18.70;48.20;;;;;;8333971;28;19920;-44
2022/09/28 05:27:01;;;;;;;;;;;18.70;48.30;;;;;;8333245;28;19917;-45
2022/09/28 05:31:02;;;;;;;;;;;18.70;48.30;;;;;;8333416;28;19940;-45
2022/09/28 05:35:05;;;;;;;;;;;18.70;48.30;;;;;;8333210;28;19959;-45
2022/09/28 05:39:05;;;;;;;;;;;18.70;48.30;;;;;;8332823;28;19979;-46
2022/09/28 05:43:06;;;;;;;;;;;18.80;48.30;;;;;;8333180;28;20387;-45
2022/09/28 05:47:06;;;;;;;;;;;18.70;48.30;;;;;;8333046;28;19917;-45
2022/09/28 05:51:08;;;;;;;;;;;18.70;48.30;;;;;;8331465;28;20389;-45
2022/09/28 05:55:09;;;;;;;;;;;18.70;48.40;;;;;;8332579;28;19921;-46
2022/09/28 05:59:10;;;;;;;;;;;18.70;48.40;;;;;;8332856;28;19928;-45
2022/09/28 06:03:12;;;;;;;;;;;18.70;48.40;;;;;;8332264;28;20278;-46
2022/09/28 06:07:12;;;;;;;;;;;18.70;48.40;;;;;;8332417;28;19917;-45
2022/09/28 06:11:13;;;;;;;;;;;18.70;48.40;;;;;;8332322;28;19963;-45
2022/09/28 06:15:14;;;;;;;;;;;18.70;48.40;;;;;;8331576;28;20400;-45
2022/09/28 06:19:14;;;;;;;;;;;18.70;48.50;;;;;;8332143;28;20370;-46
2022/09/28 06:23:15;;;;;;;;;;;18.70;48.50;;;;;;8332055;28;19953;-45
2022/09/28 06:27:15;;;;;;;;;;;18.70;48.50;;;;;;8331390;28;20322;-45
2022/09/28 06:31:16;;;;;;;;;;;18.70;48.50;;;;;;8331468;28;20065;-45
2022/09/28 06:35:17;;;;;;;;;;;18.70;48.60;;;;;;8331232;28;19917;-45
2022/09/28 06:39:17;;;;;;;;;;;18.70;48.60;;;;;;8330709;28;19917;-46
2022/09/28 06:43:18;;;;;;;;;;;18.70;48.60;;;;;;8331407;28;19996;-46
2022/09/28 06:47:18;;;;;;;;;;;18.70;48.60;;;;;;8331217;28;20012;-47
2022/09/28 06:51:19;;;;;;;;;;;18.70;48.60;;;;;;8330393;28;19960;-46
2022/09/28 06:55:19;;;;;;;;;;;18.70;48.60;;;;;;8331009;28;19963;-45
2022/09/28 06:59:20;;;;;;;;;;;18.70;48.60;;;;;;8330683;28;19925;-45
2022/09/28 07:03:21;;;;;;;;;;;18.70;48.60;;;;;;8329076;28;19952;-45
2022/09/28 07:07:21;;;;;;;;;;;18.70;48.70;;;;;;8330560;28;19932;-47
2022/09/28 07:11:25;;;;;;;;;;;18.70;48.70;;;;;;8330681;28;19917;-46
2022/09/28 07:15:26;;;;;;;;;;;18.70;48.70;;;;;;8329923;28;19933;-46
2022/09/28 07:19:26;;;;;;;;;;;18.70;48.70;;;;;;8330768;28;19917;-45
2022/09/28 07:23:28;;;;;;;;;;;18.70;48.70;;;;;;8330652;28;19913;-45
2022/09/28 07:27:28;;;;;;;;;;;18.70;48.70;;;;;;8329838;28;19925;-45
2022/09/28 07:31:31;;;;;;;;;;;18.70;48.70;;;;;;8330268;28;19921;-45
2022/09/28 07:35:34;;;;;;;;;;;18.70;48.70;;;;;;8326448;28;20245;-45
2022/09/28 07:41:10;;;;;;;;;;;18.80;48.80;;;;;;8326349;28;19914;-45
2022/09/28 07:43:55;;;;;;;;;;;18.70;48.70;;;;;;8330139;28;19918;-46
2022/09/28 07:47:56;;;;;;;;;;;18.70;48.70;;;;;;8329396;28;19925;-46
2022/09/28 07:51:56;;;;;;;;;;;18.70;48.70;;;;;;8329803;28;20349;-45
2022/09/28 07:56:03;;;;;;;;;;;18.70;48.70;;;;;;8329805;28;19921;-45
2022/09/28 08:00:06;;;;;;;;;;;18.80;48.80;;;;;;8329229;28;19917;-45
2022/09/28 08:04:07;;;;;;;;;;;18.70;48.80;;;;;;8330129;28;20307;-45
2022/09/28 08:08:08;;;;;;;;;;;18.80;48.80;;;;;;8329537;28;19917;-45
2022/09/28 08:12:09;;;;;;;;;;;18.70;48.80;;;;;;8330942;28;19917;-46
2022/09/28 08:16:10;;;;;;;;;;;18.80;48.80;;;;;;8335768;28;19983;-45
2022/09/28 08:24:30;;;;;;;;;;;18.80;48.90;;;;;;8335245;28;19928;-45
2022/09/28 08:28:31;;;;;;;;;;;18.80;48.90;;;;;;8335479;28;19917;-46
2022/09/28 08:32:32;;;;;;;;;;;18.80;48.90;;;;;;8334792;28;20266;-45
2022/09/28 08:36:33;;;;;;;;;;;18.80;48.90;;;;;;8335001;28;19968;-45
2022/09/28 08:40:36;;;;;;;;;;;18.80;48.90;;;;;;8335046;28;19913;-45
2022/09/28 08:44:49;;;;;;;;;;;18.80;49.00;;;;;;8334455;28;20356;-46
2022/09/28 08:48:52;;;;;;;;;;;18.80;49.00;;;;;;8334988;28;20397;-46
2022/09/28 08:52:57;;;;;;;;;;;18.80;49.00;;;;;;8334556;28;19924;-45
2022/09/28 08:57:00;;;;;;;;;;;18.80;49.00;;;;;;8334124;28;19931;-45
2022/09/28 09:01:01;;;;;;;;;;;18.80;49.00;;;;;;8334370;28;19913;-46
2022/09/28 09:05:03;;;;;;;;;;;18.80;49.00;;;;;;8334377;28;19917;-45
2022/09/28 09:09:42;;;;;;;;;;;18.80;49.00;;;;;;8333973;28;20386;-45
2022/09/28 09:13:43;;;;;;;;;;;18.80;49.00;;;;;;8233151;28;19918;-47
2022/09/28 09:17:59;;;;;;;;;;;18.80;49.00;;;;;;8263938;28;20004;-45
2022/09/28 09:22:04;;;;;;;;;;;18.80;49.10;;;;;;8320200;28;19921;-46
2022/09/28 09:26:12;;;;;;;;;;;18.90;49.10;;;;;;8333394;28;19913;-46
2022/09/28 09:30:23;;;;;;;;;;;18.80;49.00;;;;;;8332979;28;19924;-47
2022/09/28 09:34:50;;;;;;;;;;;18.80;49.00;;;;;;8333667;28;20004;-45
2022/09/28 09:39:15;;;;;;;;;;;18.80;49.10;;;;;;8333036;28;19925;-46
2022/09/28 09:43:35;;;;;;;;;;;18.80;49.00;;;;;;8333180;28;19921;-46
2022/09/28 09:47:41;;;;;;;;;;;18.90;49.10;;;;;;8332549;28;20335;-45
2022/09/28 09:52:01;;;;;;;;;;;18.80;49.00;;;;;;8332805;28;19968;-45
2022/09/28 09:56:07;;;;;;;;;;;18.90;49.10;;;;;;8332806;28;20448;-45
2022/09/28 10:00:11;;;;;;;;;;;18.90;49.10;;;;;;8332219;28;19918;-45
2022/09/28 10:04:31;;;;;;;;;;;18.90;49.10;;;;;;8332509;28;19924;-45
2022/09/28 10:08:36;;;;;;;;;;;18.90;49.00;;;;;;8317277;28;20302;-46
2022/09/28 10:12:37;;;;;;;;;;;18.90;49.00;;;;;;8321223;28;19917;-46
2022/09/28 10:16:37;;;;;;;;;;;18.90;49.00;;;;;;8332358;28;19927;-45
2022/09/28 10:20:38;;;;;;;;;;;18.90;49.00;;;;;;8331774;28;19917;-47
2022/09/28 10:24:44;;;;;;;;;;;18.90;49.00;;;;;;8332021;28;19979;-45
2022/09/28 10:28:47;;;;;;;;;;;18.90;49.00;;;;;;8331721;28;20333;-45
2022/09/28 10:32:48;;;;;;;;;;;18.90;49.00;;;;;;8331598;28;20011;-45
2022/09/28 10:36:51;;;;;;;;;;;18.90;48.90;;;;;;8330782;28;19925;-46
2022/09/28 10:40:59;;;;;;;;;;;18.90;49.00;;;;;;8331424;28;20008;-45
2022/09/28 10:45:01;;;;;;;;;;;19.00;49.00;;;;;;8331019;28;19967;-45
2022/09/28 10:49:11;;;;;;;;;;;18.90;49.00;;;;;;8330956;28;19972;-46
2022/09/28 10:53:19;;;;;;;;;;;19.00;49.00;;;;;;8329715;28;19923;-46
2022/09/28 10:57:32;;;;;;;;;;;19.00;49.00;;;;;;8330476;28;20007;-46
2022/09/28 11:01:33;;;;;;;;;;;19.00;49.00;;;;;;8330754;28;19923;-45
2022/09/28 11:05:34;;;;;;;;;;;19.00;49.00;;;;;;8330299;28;20279;-45
2022/09/28 11:09:39;;;;;;;;;;;18.90;48.90;;;;;;8330863;28;19964;-45
2022/09/28 11:13:41;;;;;;;;;;;19.00;49.00;;;;;;8330473;28;19921;-45
2022/09/28 11:17:43;;;;;;;;;;;19.00;48.90;;;;;;8329982;28;19925;-45
2022/09/28 11:21:45;;;;;;;;;;;19.00;49.00;;;;;;8330727;28;19924;-45
2022/09/28 11:25:55;;;;;;;;;;;19.00;49.00;;;;;;8330407;28;20062;-45
2022/09/28 11:29:57;;;;;;;;;;;19.00;49.00;;;;;;8330002;28;19948;-45
2022/09/28 11:34:03;;;;;;;;;;;19.00;48.90;;;;;;8330380;28;20389;-45
2022/09/28 11:38:22;;;;;;;;;;;19.00;49.00;;;;;;8329891;28;20003;-45
2022/09/28 11:42:32;;;;;;;;;;;19.00;49.00;;;;;;8329605;28;19921;-46
2022/09/28 11:46:44;;;;;;;;;;;19.00;49.00;;;;;;8331150;28;19924;-45
2022/09/28 11:50:45;;;;;;;;;;;19.00;49.00;;;;;;8336080;28;19913;-45
2022/09/28 11:54:49;;;;;;;;;;;19.00;49.00;;;;;;8337049;28;19920;-45
2022/09/28 11:58:52;;;;;;;;;;;19.00;49.00;;;;;;8336304;28;20313;-45
2022/09/28 12:03:08;;;;;;;;;;;19.00;49.00;;;;;;8335895;28;19917;-46
2022/09/28 12:07:30;;;;;;;;;;;19.00;49.00;;;;;;8336273;28;20003;-45
2022/09/28 12:11:33;;;;;;;;;;;19.00;49.10;;;;;;8335792;28;19925;-46
2022/09/28 12:15:42;;;;;;;;;;;19.00;49.10;;;;;;8336353;28;20841;-46
2022/09/28 12:19:55;;;;;;;;;;;19.00;49.00;;;;;;8335746;28;20374;-45
2022/09/28 12:23:59;;;;;;;;;;;19.00;49.00;;;;;;8335103;28;19918;-45
2022/09/28 12:28:02;;;;;;;;;;;19.00;49.10;;;;;;8335373;28;19921;-45
2022/09/28 12:32:16;;;;;;;;;;;18.90;49.10;;;;;;8335407;28;19971;-46
2022/09/28 12:36:39;;;;;;;;;;;19.00;49.20;;;;;;8334566;28;19933;-47
2022/09/28 12:40:48;;;;;;;;;;;19.00;49.10;;;;;;8335297;28;20003;-46
2022/09/28 12:44:55;;;;;;;;;;;18.90;49.20;;;;;;8334235;28;19925;-45
2022/09/28 12:49:00;;;;;;;;;;;19.00;49.20;;;;;;8334746;28;20436;-45
2022/09/28 12:53:19;;;;;;;;;;;19.00;49.10;;;;;;8334283;28;19917;-46
2022/09/28 12:57:34;;;;;;;;;;;19.00;49.20;;;;;;8333496;28;19925;-45
2022/09/28 13:01:34;;;;;;;;;;;19.00;49.20;;;;;;8334532;28;20377;-45
2022/09/28 13:05:35;;;;;;;;;;;19.00;49.20;;;;;;8332792;28;19964;-46
2022/09/28 13:09:51;;;;;;;;;;;19.00;49.20;;;;;;8333793;28;20297;-45
2022/09/28 13:14:02;;;;;;;;;;;19.00;49.20;;;;;;8333897;28;19917;-45
2022/09/28 13:18:09;;;;;;;;;;;19.00;49.20;;;;;;8333303;28;19971;-44
2022/09/28 13:22:10;;;;;;;;;;;19.00;49.20;;;;;;8333804;28;19959;-44
2022/09/28 13:26:24;;;;;;;;;;;19.00;49.20;;;;;;8333778;28;19913;-44
2022/09/28 13:30:25;;;;;;;;;;;19.00;49.20;;;;;;8333339;28;19917;-44
2022/09/28 13:34:27;;;;;;;;;;;18.90;49.10;;;;;;8333535;28;19917;-45
2022/09/28 13:38:29;;;;;;;;;;;19.00;49.20;;;;;;8332953;28;19925;-45
2022/09/28 13:42:35;;;;;;;;;;;19.00;49.20;;;;;;8332898;28;19929;-46
2022/09/28 13:46:54;;;;;;;;;;;19.00;49.20;;;;;;8332872;28;20061;-46
2022/09/28 13:51:01;;;;;;;;;;;18.90;49.20;;;;;;8332166;28;19940;-45
2022/09/28 13:55:16;;;;;;;;;;;19.00;49.20;;;;;;8332217;28;19948;-45
2022/09/28 13:59:20;;;;;;;;;;;19.00;49.20;;;;;;8332643;28;19925;-45
2022/09/28 14:03:20;;;;;;;;;;;18.90;49.10;;;;;;8332092;28;19921;-45
2022/09/28 14:07:23;;;;;;;;;;;19.00;49.20;;;;;;8332288;28;20449;-45
2022/09/28 14:11:24;;;;;;;;;;;19.00;49.30;;;;;;8331669;28;19974;-44
2022/09/28 14:15:27;;;;;;;;;;;18.90;49.20;;;;;;8331569;28;20348;-46
2022/09/28 14:19:30;;;;;;;;;;;19.00;49.20;;;;;;8332076;28;19921;-45
2022/09/28 14:23:30;;;;;;;;;;;19.00;49.30;;;;;;8331458;28;19928;-46
2022/09/28 14:27:39;;;;;;;;;;;18.90;49.30;;;;;;8331641;28;19917;-44
2022/09/28 14:31:41;;;;;;;;;;;19.00;49.30;;;;;;8331959;28;20271;-45
2022/09/28 14:35:44;;;;;;;;;;;19.00;49.30;;;;;;8331077;28;19921;-44
2022/09/28 14:44:06;;;;;;;;;;;18.90;49.30;;;;;;8331250;28;19924;-44
2022/09/28 14:48:12;;;;;;;;;;;19.00;49.30;;;;;;8330593;28;20370;-46
2022/09/28 14:52:16;;;;;;;;;;;18.90;49.30;;;;;;8331195;28;19932;-45
2022/09/28 14:56:17;;;;;;;;;;;19.00;49.40;;;;;;8330743;28;19928;-45
2022/09/28 15:00:23;;;;;;;;;;;18.90;49.30;;;;;;8330304;28;20255;-44
2022/09/28 15:04:25;;;;;;;;;;;18.90;49.30;;;;;;8330934;28;19944;-46
2022/09/28 15:08:34;;;;;;;;;;;19.00;49.30;;;;;;8330690;28;19924;-45
2022/09/28 15:12:35;;;;;;;;;;;19.00;49.30;;;;;;8330496;28;19917;-46
2022/09/28 15:16:35;;;;;;;;;;;18.90;49.30;;;;;;8330756;28;19967;-45
2022/09/28 15:20:38;;;;;;;;;;;19.00;49.30;;;;;;8329789;28;19917;-46
2022/09/28 15:24:44;;;;;;;;;;;19.00;49.40;;;;;;8330354;28;19917;-46
2022/09/28 15:28:44;;;;;;;;;;;19.00;49.40;;;;;;8330097;28;19927;-45
2022/09/28 15:32:44;;;;;;;;;;;19.00;49.30;;;;;;8329602;28;19918;-46
2022/09/28 15:36:45;;;;;;;;;;;19.00;49.30;;;;;;8330228;28;20006;-45
2022/09/28 15:40:46;;;;;;;;;;;19.00;49.30;;;;;;8329861;28;19917;-46
2022/09/28 15:45:06;;;;;;;;;;;18.90;49.30;;;;;;8329620;28;19913;-46
2022/09/28 15:49:20;;;;;;;;;;;18.90;49.30;;;;;;8329941;28;19917;-45
2022/09/28 15:53:21;;;;;;;;;;;18.90;49.30;;;;;;8329915;28;19913;-45
2022/09/28 15:57:29;;;;;;;;;;;19.00;49.40;;;;;;8329209;28;20413;-45
2022/09/28 16:01:36;;;;;;;;;;;18.90;49.30;;;;;;8325048;28;20331;-47
2022/09/28 16:05:45;;;;;;;;;;;19.00;49.40;;;;;;8310315;28;19929;-46
2022/09/28 16:09:59;;;;;;;;;;;18.90;49.30;;;;;;8304728;28;19917;-45
2022/09/28 16:14:19;;;;;;;;;;;18.90;49.30;;;;;;8317664;28;20414;-45
2022/09/28 16:18:22;;;;;;;;;;;18.90;49.30;;;;;;8315247;28;19929;-45
2022/09/28 16:22:22;;;;;;;;;;;18.90;49.30;;;;;;8307013;28;19929;-44
2022/09/28 16:26:31;;;;;;;;;;;18.90;49.40;;;;;;8328660;28;20003;-44
2022/09/28 16:30:32;;;;;;;;;;;18.90;49.30;;;;;;8313696;28;19917;-45
2022/09/28 16:34:35;;;;;;;;;;;18.90;49.30;;;;;;8325290;28;20018;-45
2022/09/28 16:38:37;;;;;;;;;;;18.90;49.30;;;;;;8312098;28;19925;-45
2022/09/28 16:42:38;;;;;;;;;;;18.90;49.30;;;;;;8301873;28;19968;-45
2022/09/28 16:46:39;;;;;;;;;;;18.90;49.30;;;;;;8329444;28;19928;-45
2022/09/28 16:50:39;;;;;;;;;;;18.90;49.30;;;;;;8304665;28;19921;-45
2022/09/28 16:59:16;;;;;;;;;;;18.90;49.30;;;;;;8283123;28;19948;-45
2022/09/28 17:03:17;;;;;;;;;;;18.90;49.30;;;;;;8305596;28;19944;-45
2022/09/28 17:07:19;;;;;;;;;;;18.90;49.30;;;;;;8334810;28;19917;-45
2022/09/28 17:11:19;;;;;;;;;;;18.90;49.30;;;;;;8315688;28;19921;-45
2022/09/28 17:15:20;;;;;;;;;;;18.90;49.30;;;;;;8319801;28;19948;-45
2022/09/28 17:19:22;;;;;;;;;;;18.90;49.30;;;;;;8313455;28;19929;-45
2022/09/28 17:23:22;;;;;;;;;;;18.90;49.30;;;;;;8308703;28;19921;-46
2022/09/28 17:27:23;;;;;;;;;;;18.90;49.30;;;;;;8327384;28;20007;-47
2022/09/28 17:31:24;;;;;;;;;;;18.90;49.30;;;;;;8306578;28;19925;-46
2022/09/28 17:35:24;;;;;;;;;;;18.90;49.30;;;;;;8311280;28;20352;-45
2022/09/28 17:39:25;;;;;;;;;;;18.90;49.30;;;;;;8311626;28;19925;-45
2022/09/28 17:43:25;;;;;;;;;;;18.90;49.30;;;;;;8302720;28;19922;-45
2022/09/28 17:47:27;;;;;;;;;;;18.80;49.20;;;;;;8298159;28;20436;-46
2022/09/28 17:51:29;;;;;;;;;;;18.90;49.30;;;;;;8315288;28;19940;-47
2022/09/28 17:55:32;;;;;;;;;;;18.80;49.30;;;;;;8331748;28;19917;-46
2022/09/28 17:59:32;;;;;;;;;;;18.90;49.30;;;;;;8330002;28;20722;-46
2022/09/28 18:03:33;;;;;;;;;;;18.90;49.30;;;;;;8303576;28;19917;-46
2022/09/28 18:07:33;;;;;;;;;;;18.90;49.40;;;;;;8301680;28;19914;-47
2022/09/28 18:11:39;;;;;;;;;;;18.80;49.30;;;;;;8305079;28;20378;-46
2022/09/28 18:15:39;;;;;;;;;;;18.80;49.40;;;;;;8319412;28;19941;-46
2022/09/28 18:19:40;;;;;;;;;;;18.80;49.40;;;;;;8324654;28;20401;-46
2022/09/28 18:23:40;;;;;;;;;;;18.90;49.50;;;;;;8302575;28;20388;-45
2022/09/28 18:27:41;;;;;;;;;;;18.80;49.40;;;;;;8326335;28;20008;-45
2022/09/28 18:31:42;;;;;;;;;;;18.80;49.40;;;;;;8310686;28;19917;-46
2022/09/28 18:35:50;;;;;;;;;;;18.80;49.40;;;;;;8350428;28;19990;-46
2022/09/28 18:39:51;;;;;;;;;;;18.80;49.40;;;;;;8317590;28;19921;-45
2022/09/28 18:43:51;;;;;;;;;;;18.80;49.40;;;;;;8300554;28;19939;-46
2022/09/28 18:47:52;;;;;;;;;;;18.80;49.40;;;;;;8329123;28;19929;-46
2022/09/28 18:51:52;;;;;;;;;;;18.80;49.40;;;;;;8307955;28;19917;-46
2022/09/28 18:55:53;;;;;;;;;;;18.80;49.40;;;;;;8315032;28;19928;-46
2022/09/28 18:59:53;;;;;;;;;;;18.80;49.40;;;;;;8302934;28;19921;-45
2022/09/28 19:03:54;;;;;;;;;;;18.90;49.50;;;;;;8300749;28;19918;-46
2022/09/28 19:07:55;;;;;;;;;;;18.80;49.50;;;;;;8312562;28;19930;-45
2022/09/28 19:11:55;;;;;;;;;;;18.80;49.50;;;;;;8320237;28;20028;-45
2022/09/28 19:15:56;;;;;;;;;;;18.80;49.50;;;;;;8303321;28;19925;-45
2022/09/28 19:19:56;;;;;;;;;;;18.80;49.50;;;;;;8310654;28;19996;-46
2022/09/28 19:24:01;;;;;;;;;;;18.90;49.60;;;;;;8329844;28;19913;-44
2022/09/28 19:28:01;;;;;;;;;;;18.80;49.50;;;;;;8330518;28;19913;-45
2022/09/28 19:32:02;;;;;;;;;;;18.90;49.50;;;;;;8330211;28;19964;-46
2022/09/28 19:36:04;;;;;;;;;;;18.80;49.50;;;;;;8329515;28;19921;-46
2022/09/28 19:40:05;;;;;;;;;;;18.80;49.50;;;;;;8329842;28;19913;-46
2022/09/28 19:44:08;;;;;;;;;;;18.80;49.50;;;;;;8329940;28;19960;-45
2022/09/28 19:48:08;;;;;;;;;;;18.80;49.50;;;;;;8329821;28;19924;-45
2022/09/28 19:52:17;;;;;;;;;;;18.80;49.50;;;;;;8329878;28;19917;-45
2022/09/28 19:56:17;;;;;;;;;;;18.80;49.50;;;;;;8329817;28;19960;-45
2022/09/28 20:00:18;;;;;;;;;;;18.80;49.50;;;;;;8329234;28;19924;-45
2022/09/28 20:04:21;;;;;;;;;;;18.80;49.50;;;;;;8329689;28;19921;-45
2022/09/28 20:08:22;;;;;;;;;;;18.80;49.50;;;;;;8331985;28;19917;-46
2022/09/28 20:12:22;;;;;;;;;;;18.80;49.60;;;;;;8335457;28;20389;-46
2022/09/28 20:16:23;;;;;;;;;;;18.80;49.60;;;;;;8335790;28;19925;-46
2022/09/28 20:20:27;;;;;;;;;;;18.80;49.60;;;;;;8335712;28;19920;-46
2022/09/28 20:24:28;;;;;;;;;;;18.80;49.60;;;;;;8335084;28;19956;-45
2022/09/28 20:28:28;;;;;;;;;;;18.80;49.50;;;;;;8336030;28;19914;-46
2022/09/28 20:32:32;;;;;;;;;;;18.80;49.50;;;;;;8335301;28;19917;-46
2022/09/28 20:36:33;;;;;;;;;;;18.80;49.60;;;;;;8334876;28;20012;-47
2022/09/28 20:40:34;;;;;;;;;;;18.80;49.60;;;;;;8335104;28;19914;-45
2022/09/28 20:44:34;;;;;;;;;;;18.80;49.50;;;;;;8334445;28;20010;-45
2022/09/28 20:48:35;;;;;;;;;;;18.80;49.50;;;;;;8335066;28;20337;-45
2022/09/28 20:52:36;;;;;;;;;;;18.80;49.50;;;;;;8334696;28;20059;-45
2022/09/28 20:56:37;;;;;;;;;;;18.80;49.40;;;;;;8334140;28;19921;-45
2022/09/28 21:00:38;;;;;;;;;;;18.80;49.40;;;;;;8334852;28;19921;-46
2022/09/28 21:04:40;;;;;;;;;;;18.80;49.40;;;;;;8334336;28;19924;-45
2022/09/28 21:08:41;;;;;;;;;;;18.80;49.40;;;;;;8334066;28;19928;-46
2022/09/28 21:12:41;;;;;;;;;;;18.80;49.90;;;;;;8334478;28;19999;-46
2022/09/28 21:16:42;;;;;;;;;;;18.80;49.40;;;;;;8333898;28;19925;-46
2022/09/28 21:20:43;;;;;;;;;;;18.80;49.40;;;;;;8333143;28;19960;-45
2022/09/28 21:24:43;;;;;;;;;;;18.80;49.40;;;;;;8333765;28;19948;-45
2022/09/28 21:28:44;;;;;;;;;;;18.80;49.40;;;;;;8333976;28;20282;-45
2022/09/28 21:32:45;;;;;;;;;;;18.80;49.40;;;;;;8333210;28;20282;-45
2022/09/28 21:36:52;;;;;;;;;;;18.80;49.40;;;;;;8333310;28;19925;-46
2022/09/28 21:40:53;;;;;;;;;;;18.80;49.30;;;;;;8333234;28;19920;-45
2022/09/28 21:44:53;;;;;;;;;;;18.80;49.30;;;;;;8332606;28;20099;-46
2022/09/28 21:49:04;;;;;;;;;;;18.80;49.30;;;;;;8351763;28;19917;-47
2022/09/28 21:53:05;;;;;;;;;;;18.80;49.30;;;;;;8336180;28;19949;-46
2022/09/28 21:57:05;;;;;;;;;;;18.80;49.30;;;;;;8332258;28;20479;-46
2022/09/28 22:01:08;;;;;;;;;;;18.80;49.30;;;;;;8331970;28;19917;-46
2022/09/28 22:05:09;;;;;;;;;;;18.80;49.30;;;;;;8332429;28;19925;-45
2022/09/28 22:09:10;;;;;;;;;;;18.80;49.30;;;;;;8331085;28;19913;-45
2022/09/28 22:13:10;;;;;;;;;;;18.80;49.20;;;;;;8332352;28;19943;-45
2022/09/28 22:17:11;;;;;;;;;;;18.80;49.20;;;;;;8332161;28;19928;-45
2022/09/28 22:21:15;;;;;;;;;;;18.80;49.30;;;;;;8331636;28;19924;-46
2022/09/28 22:25:16;;;;;;;;;;;18.80;49.30;;;;;;8331751;28;19949;-45
2022/09/28 22:29:17;;;;;;;;;;;18.80;49.30;;;;;;8331974;28;20317;-46
2022/09/28 22:33:17;;;;;;;;;;;18.80;49.20;;;;;;8330445;28;19921;-45
2022/09/28 22:37:18;;;;;;;;;;;18.80;49.20;;;;;;8331452;28;20382;-45
2022/09/28 22:41:21;;;;;;;;;;;18.80;49.30;;;;;;8331447;28;19920;-46
2022/09/28 22:45:22;;;;;;;;;;;18.80;49.20;;;;;;8330989;28;19948;-45
2022/09/28 22:49:23;;;;;;;;;;;18.70;49.20;;;;;;8331402;28;19917;-47
2022/09/28 22:53:23;;;;;;;;;;;18.70;49.20;;;;;;8330992;28;19921;-46
2022/09/28 22:57:24;;;;;;;;;;;18.70;49.20;;;;;;8330448;28;20404;-45
2022/09/28 23:01:25;;;;;;;;;;;18.70;49.20;;;;;;8330782;28;19963;-45
2022/09/28 23:05:26;;;;;;;;;;;18.70;49.20;;;;;;8330464;28;19948;-46
2022/09/28 23:09:26;;;;;;;;;;;18.70;49.20;;;;;;8330227;28;19921;-45
2022/09/28 23:13:27;;;;;;;;;;;18.70;49.20;;;;;;8330567;28;19917;-46
2022/09/28 23:17:28;;;;;;;;;;;18.70;49.20;;;;;;8330483;28;19927;-45
2022/09/28 23:21:28;;;;;;;;;;;18.70;49.20;;;;;;8329867;28;20397;-46
2022/09/28 23:25:29;;;;;;;;;;;18.70;49.20;;;;;;8330168;28;19913;-46
2022/09/28 23:29:29;;;;;;;;;;;18.70;49.20;;;;;;8330098;28;19940;-45
2022/09/28 23:33:29;;;;;;;;;;;18.70;49.20;;;;;;8330004;28;19917;-47
2022/09/28 23:37:30;;;;;;;;;;;18.70;49.30;;;;;;8329800;28;19983;-45
2022/09/28 23:41:30;;;;;;;;;;;18.70;49.20;;;;;;8330478;28;20382;-46
2022/09/28 23:45:31;;;;;;;;;;;18.70;49.20;;;;;;8336562;28;19913;-46
2022/09/28 23:49:31;;;;;;;;;;;18.70;49.20;;;;;;8336836;28;19921;-46